createdAt,value
2022-10-11T00:00:59.727Z,100910.16
2022-10-11T00:03:35.636Z,100907.25
2022-10-11T00:06:06.274Z,100900.66
2022-10-11T00:08:34.975Z,100901.66
2022-10-11T00:11:07.655Z,100901.59
2022-10-11T00:13:35.983Z,100899.91
2022-10-11T00:16:09.481Z,100898.33
2022-10-11T00:18:39.094Z,100898.80
2022-10-11T00:21:13.729Z,100884.36
2022-10-11T00:23:42.470Z,100890.02
2022-10-11T00:26:11.546Z,100890.25
2022-10-11T00:28:40.606Z,100892.35
2022-10-11T00:31:11.882Z,100892.87
2022-10-11T00:33:40.146Z,100891.17
2022-10-11T00:36:09.425Z,100886.54
2022-10-11T00:38:37.621Z,100885.83
2022-10-11T00:41:06.308Z,100883.36
2022-10-11T00:43:34.561Z,100880.44
2022-10-11T00:46:24.644Z,100879.30
2022-10-11T00:49:16.929Z,100878.23
2022-10-11T00:51:47.606Z,100874.48
2022-10-11T00:54:18.917Z,100872.79
2022-10-11T00:56:51.541Z,100870.70
2022-10-11T00:59:25.195Z,100870.95
2022-10-11T01:01:53.677Z,100869.35
2022-10-11T01:04:22.133Z,100862.90
2022-10-11T01:06:51.931Z,100857.25
2022-10-11T01:09:21.301Z,100856.96
2022-10-11T01:11:51.162Z,100855.67
2022-10-11T01:14:24.794Z,100850.92
2022-10-11T01:17:08.136Z,100851.44
2022-10-11T01:19:57.678Z,100849.27
2022-10-11T01:22:37.997Z,100845.78
2022-10-11T01:25:05.904Z,100840.22
2022-10-11T01:28:17.637Z,100838.13
2022-10-11T01:30:47.189Z,100840.89
2022-10-11T01:33:40.056Z,100839.81
2022-10-11T01:36:43.599Z,100837.89
2022-10-11T01:39:32.774Z,100840.12
2022-10-11T01:42:04.009Z,100834.91
2022-10-11T01:44:34.531Z,100835.27
2022-10-11T01:47:02.527Z,100834.00
2022-10-11T01:49:30.903Z,100835.13
2022-10-11T01:52:03.622Z,100834.64
2022-10-11T01:55:07.502Z,100834.50
2022-10-11T01:57:50.314Z,100835.35
2022-10-11T02:00:30.321Z,100832.68
2022-10-11T02:03:01.302Z,100831.58
2022-10-11T02:05:37.737Z,100828.77
2022-10-11T02:08:05.879Z,100828.89
2022-10-11T02:10:42.706Z,100825.73
2022-10-11T02:13:25.602Z,100824.70
2022-10-11T02:15:56.737Z,100822.30
2022-10-11T02:18:29.880Z,100823.94
2022-10-11T02:21:01.888Z,100825.37
2022-10-11T02:23:38.126Z,100826.27
2022-10-11T02:26:10.022Z,100823.17
2022-10-11T02:28:42.377Z,100820.02
2022-10-11T02:31:12.243Z,100819.67
2022-10-11T02:33:56.969Z,100818.34
2022-10-11T02:36:41.662Z,100819.30
2022-10-11T02:39:28.783Z,100820.60
2022-10-11T02:42:02.486Z,100818.70
2022-10-11T02:44:40.576Z,100818.07
2022-10-11T02:47:09.642Z,100820.05
2022-10-11T02:49:38.181Z,100817.69
2022-10-11T02:52:06.793Z,100814.52
2022-10-11T02:54:35.004Z,100810.89
2022-10-11T02:57:03.122Z,100810.50
2022-10-11T02:59:31.092Z,100814.73
2022-10-11T03:01:59.130Z,100812.08
2022-10-11T03:04:27.154Z,100814.49
2022-10-11T03:06:55.299Z,100814.52
2022-10-11T03:09:23.276Z,100811.90
2022-10-11T03:11:51.346Z,100816.90
2022-10-11T03:14:19.585Z,100814.85
2022-10-11T03:16:47.675Z,100815.94
2022-10-11T03:19:19.138Z,100814.50
2022-10-11T03:21:47.705Z,100809.40
2022-10-11T03:24:15.674Z,100806.33
2022-10-11T03:26:44.196Z,100807.63
2022-10-11T03:29:12.176Z,100804.61
2022-10-11T03:31:40.162Z,100804.49
2022-10-11T03:34:08.437Z,100804.64
2022-10-11T03:36:36.756Z,100800.34
2022-10-11T03:39:05.109Z,100798.82
2022-10-11T03:41:33.185Z,100797.95
2022-10-11T03:44:01.179Z,100796.77
2022-10-11T03:46:29.126Z,100793.30
2022-10-11T03:48:57.737Z,100792.98
2022-10-11T03:51:26.396Z,100792.95
2022-10-11T03:53:54.516Z,100788.64
2022-10-11T03:56:22.529Z,100786.41
2022-10-11T03:58:50.517Z,100785.88
2022-10-11T04:01:18.562Z,100781.83
2022-10-11T04:03:46.790Z,100780.87
2022-10-11T04:06:14.878Z,100782.34
2022-10-11T04:08:42.900Z,100781.70
2022-10-11T04:11:10.891Z,100780.58
2022-10-11T04:13:38.972Z,100782.55
2022-10-11T04:16:07.531Z,100784.85
2022-10-11T04:18:36.209Z,100783.80
2022-10-11T04:21:04.423Z,100783.19
2022-10-11T04:23:33.201Z,100780.34
2022-10-11T04:26:07.310Z,100783.12
2022-10-11T04:28:36.378Z,100787.45
2022-10-11T04:31:05.370Z,100787.86
2022-10-11T04:33:34.406Z,100784.09
2022-10-11T04:36:03.575Z,100787.20
2022-10-11T04:38:31.951Z,100785.16
2022-10-11T04:41:12.565Z,100782.06
2022-10-11T04:43:40.656Z,100780.21
2022-10-11T04:46:09.710Z,100781.96
2022-10-11T04:48:38.206Z,100779.89
2022-10-11T04:51:06.298Z,100780.04
2022-10-11T04:53:34.537Z,100781.24
2022-10-11T04:56:07.830Z,100785.05
2022-10-11T04:58:36.404Z,100781.27
2022-10-11T05:01:04.816Z,100785.95
2022-10-11T05:03:32.935Z,100786.67
2022-10-11T05:06:05.477Z,100785.13
2022-10-11T05:08:34.492Z,100781.73
2022-10-11T05:11:05.514Z,100782.88
2022-10-11T05:13:35.443Z,100788.21
2022-10-11T05:16:09.554Z,100793.34
2022-10-11T05:18:40.089Z,100793.46
2022-10-11T05:21:16.119Z,100795.39
2022-10-11T05:23:45.448Z,100794.96
2022-10-11T05:26:14.192Z,100793.46
2022-10-11T05:28:42.753Z,100793.41
2022-10-11T05:31:11.522Z,100789.20
2022-10-11T05:33:39.480Z,100789.62
2022-10-11T05:36:09.771Z,100786.63
2022-10-11T05:38:38.449Z,100786.19
2022-10-11T05:41:07.060Z,100784.08
2022-10-11T05:43:35.179Z,100784.89
2022-10-11T05:46:03.658Z,100789.73
2022-10-11T05:48:32.241Z,100792.70
2022-10-11T05:51:03.089Z,100792.85
2022-10-11T05:53:31.712Z,100791.05
2022-10-11T05:56:00.510Z,100789.98
2022-10-11T05:58:28.916Z,100795.33
2022-10-11T06:00:57.286Z,100794.77
2022-10-11T06:03:25.356Z,100797.41
2022-10-11T06:05:56.660Z,100799.11
2022-10-11T06:08:25.369Z,100800.49
2022-10-11T06:10:53.439Z,100800.35
2022-10-11T06:13:21.459Z,100800.83
2022-10-11T06:15:49.541Z,100802.92
2022-10-11T06:18:17.503Z,100800.75
2022-10-11T06:20:45.468Z,100803.80
2022-10-11T06:23:13.450Z,100799.23
2022-10-11T06:25:41.589Z,100801.20
2022-10-11T06:28:09.648Z,100803.36
2022-10-11T06:30:38.671Z,100800.17
2022-10-11T06:33:06.851Z,100799.95
2022-10-11T06:35:34.832Z,100803.05
2022-10-11T06:38:03.002Z,100799.84
2022-10-11T06:40:31.034Z,100802.89
2022-10-11T06:42:58.983Z,100803.23
2022-10-11T06:45:27.056Z,100804.55
2022-10-11T06:47:55.085Z,100804.74
2022-10-11T06:50:47.107Z,100805.98
2022-10-11T06:53:11.347Z,100811.35
2022-10-11T06:55:39.288Z,100810.21
2022-10-11T06:58:07.305Z,100813.62
2022-10-11T07:00:35.329Z,100814.33
2022-10-11T07:03:03.536Z,100816.08
2022-10-11T07:05:33.037Z,100814.73
2022-10-11T07:08:01.808Z,100807.27
2022-10-11T07:10:29.768Z,100807.98
2022-10-11T07:12:57.838Z,100811.15
2022-10-11T07:26:31.294Z,100809.20
2022-10-11T07:29:02.070Z,100810.92
2022-10-11T07:31:31.019Z,100810.27
2022-10-11T07:33:59.147Z,100806.75
2022-10-11T07:36:27.267Z,100802.31
2022-10-11T07:38:55.659Z,100801.46
2022-10-11T07:41:23.618Z,100798.70
2022-10-11T07:43:52.268Z,100795.04
2022-10-11T07:46:20.704Z,100789.27
2022-10-11T07:48:50.381Z,100793.17
2022-10-11T07:51:22.008Z,100794.59
2022-10-11T07:53:56.151Z,100799.66
2022-10-11T07:56:29.062Z,100798.16
2022-10-11T07:59:00.795Z,100793.10
2022-10-11T08:01:30.222Z,100788.48
2022-10-11T08:03:59.095Z,100787.05
2022-10-11T08:06:32.586Z,100784.88
2022-10-11T08:09:01.503Z,100788.93
2022-10-11T08:11:35.382Z,100785.25
2022-10-11T08:14:08.839Z,100784.83
2022-10-11T08:16:39.121Z,100786.45
2022-10-11T08:19:07.683Z,100788.94
2022-10-11T08:21:36.113Z,100784.35
2022-10-11T08:24:05.300Z,100779.77
2022-10-11T08:26:34.304Z,100777.77
2022-10-11T08:29:03.534Z,100781.27
2022-10-11T08:31:32.907Z,100779.38
2022-10-11T08:34:01.191Z,100778.80
2022-10-11T08:36:29.175Z,100775.66
2022-10-11T08:38:57.206Z,100773.06
2022-10-11T08:41:25.140Z,100773.44
2022-10-11T08:44:02.925Z,100769.89
2022-10-11T08:46:35.248Z,100768.19
2022-10-11T08:49:07.065Z,100763.05
2022-10-11T08:51:52.768Z,100759.72
2022-10-11T08:54:32.301Z,100762.13
2022-10-11T08:57:02.601Z,100759.91
2022-10-11T08:59:39.214Z,100758.77
2022-10-11T09:03:03.024Z,100758.51
2022-10-11T09:05:31.263Z,100748.67
2022-10-11T09:08:16.783Z,100746.59
2022-10-11T09:10:55.751Z,100744.92
2022-10-11T09:13:42.220Z,100745.02
2022-10-11T09:16:34.834Z,100737.82
2022-10-11T09:19:02.863Z,100737.13
2022-10-11T09:22:05.994Z,100737.83
2022-10-11T09:24:48.803Z,100734.02
2022-10-11T09:27:50.258Z,100735.08
2022-10-11T09:30:17.781Z,100728.83
2022-10-11T09:32:55.115Z,100728.59
2022-10-11T09:35:23.180Z,100729.19
2022-10-11T09:38:19.317Z,100729.95
2022-10-11T09:41:08.541Z,100726.55
2022-10-11T09:43:36.701Z,100722.16
2022-10-11T09:46:19.007Z,100718.41
2022-10-11T09:48:47.662Z,100716.08
2022-10-11T09:51:21.512Z,100712.61
2022-10-11T09:53:49.451Z,100710.30
2022-10-11T09:56:17.522Z,100713.81
2022-10-11T09:58:45.545Z,100713.90
2022-10-11T10:01:25.209Z,100713.07
2022-10-11T10:04:12.185Z,100708.52
2022-10-11T10:06:41.029Z,100709.63
2022-10-11T10:09:21.350Z,100706.46
2022-10-11T10:11:49.778Z,100702.44
2022-10-11T10:14:31.345Z,100698.06
2022-10-11T10:17:17.421Z,100699.95
2022-10-11T10:20:05.756Z,100697.56
2022-10-11T10:22:35.803Z,100696.19
2022-10-11T10:25:08.190Z,100695.36
2022-10-11T10:27:36.418Z,100690.62
2022-10-11T10:30:10.828Z,100683.89
2022-10-11T10:33:03.840Z,100678.20
2022-10-11T10:35:49.424Z,100680.08
2022-10-11T10:38:26.789Z,100682.84
2022-10-11T10:40:58.334Z,100681.73
2022-10-11T10:43:32.278Z,100675.70
2022-10-11T10:46:04.801Z,100678.60
2022-10-11T10:49:11.679Z,100674.80
2022-10-11T10:51:57.833Z,100666.40
2022-10-11T10:54:56.355Z,100660.86
2022-10-11T10:57:52.633Z,100659.52
2022-10-11T11:00:23.165Z,100657.81
2022-10-11T11:03:00.081Z,100655.50
2022-10-11T11:05:53.335Z,100654.13
2022-10-11T11:08:39.881Z,100655.96
2022-10-11T11:11:24.032Z,100651.40
2022-10-11T11:14:08.421Z,100648.25
2022-10-11T11:16:54.621Z,100645.11
2022-10-11T11:20:25.067Z,100644.86
2022-10-11T11:23:00.155Z,100642.23
2022-10-11T11:25:45.102Z,100640.64
2022-10-11T11:28:28.627Z,100642.16
2022-10-11T11:31:30.369Z,100639.27
2022-10-11T11:34:17.067Z,100638.91
2022-10-11T11:37:09.705Z,100638.97
2022-10-11T11:39:50.632Z,100640.11
2022-10-11T11:42:26.596Z,100637.67
2022-10-11T11:44:54.658Z,100638.80
2022-10-11T11:47:37.920Z,100636.42
2022-10-11T11:50:24.009Z,100633.59
2022-10-11T11:52:56.572Z,100635.93
2022-10-11T11:55:33.596Z,100632.04
2022-10-11T11:58:38.750Z,100628.17
2022-10-11T12:01:32.724Z,100629.12
2022-10-11T12:04:07.604Z,100628.05
2022-10-11T12:06:47.688Z,100625.48
2022-10-11T12:09:31.954Z,100628.96
2022-10-11T12:12:05.898Z,100628.27
2022-10-11T12:14:33.861Z,100628.29
2022-10-11T12:17:09.793Z,100624.50
2022-10-11T12:19:41.056Z,100621.73
2022-10-11T12:22:35.192Z,100617.99
2022-10-11T12:25:03.030Z,100618.13
2022-10-11T12:27:40.822Z,100617.05
2022-10-11T12:30:44.575Z,100615.63
2022-10-11T12:33:17.375Z,100612.98
2022-10-11T12:35:54.586Z,100613.81
2022-10-11T12:38:24.368Z,100613.36
2022-10-11T12:41:19.672Z,100612.59
2022-10-11T12:43:50.510Z,100609.33
2022-10-11T12:46:33.567Z,100614.80
2022-10-11T12:49:21.993Z,100606.65
2022-10-11T12:52:02.156Z,100602.51
2022-10-11T12:54:45.034Z,100601.64
2022-10-11T12:57:31.936Z,100603.54
2022-10-11T13:00:32.604Z,100601.51
2022-10-11T13:03:27.179Z,100605.89
2022-10-11T13:06:01.672Z,100607.77
2022-10-11T13:08:36.637Z,100603.92
2022-10-11T13:11:09.231Z,100606.91
2022-10-11T13:13:45.211Z,100608.38
2022-10-11T13:16:17.296Z,100604.96
2022-10-11T13:18:48.088Z,100605.77
2022-10-11T13:21:21.604Z,100603.70
2022-10-11T13:23:57.965Z,100598.92
2022-10-11T13:26:28.496Z,100598.08
2022-10-11T13:28:57.375Z,100596.28
2022-10-11T13:31:25.968Z,100594.10
2022-10-11T13:33:56.852Z,100588.22
2022-10-11T13:36:26.927Z,100586.80
2022-10-11T13:38:58.785Z,100579.34
2022-10-11T13:41:29.599Z,100582.67
2022-10-11T13:43:59.867Z,100579.95
2022-10-11T13:46:31.016Z,100575.95
2022-10-11T13:49:00.336Z,100569.14
2022-10-11T13:51:36.174Z,100572.85
2022-10-11T13:54:13.534Z,100573.55
2022-10-11T13:56:51.479Z,100572.21
2022-10-11T13:59:25.037Z,100567.18
2022-10-11T14:02:04.412Z,100571.95
2022-10-11T14:04:40.279Z,100570.69
2022-10-11T14:07:23.820Z,100570.80
2022-10-11T14:09:52.134Z,100571.98
2022-10-11T14:12:32.258Z,100573.95
2022-10-11T14:15:01.689Z,100570.17
2022-10-11T14:17:40.839Z,100566.07
2022-10-11T14:20:23.229Z,100564.59
2022-10-11T14:22:54.797Z,100568.64
2022-10-11T14:25:22.868Z,100565.19
2022-10-11T14:27:50.974Z,100565.86
2022-10-11T14:30:26.678Z,100566.30
2022-10-11T14:32:59.867Z,100565.08
2022-10-11T14:35:34.949Z,100568.25
2022-10-11T14:38:03.094Z,100564.11
2022-10-11T14:40:31.825Z,100562.70
2022-10-11T14:43:00.030Z,100563.38
2022-10-11T14:45:29.234Z,100566.05
2022-10-11T14:47:57.403Z,100563.89
2022-10-11T14:50:48.075Z,100558.74
2022-10-11T14:53:16.772Z,100562.03
2022-10-11T14:55:45.501Z,100562.90
2022-10-11T14:58:15.990Z,100566.33
2022-10-11T15:00:44.931Z,100564.98
2022-10-11T15:03:14.360Z,100567.38
2022-10-11T15:05:42.343Z,100566.70
2022-10-11T15:08:12.314Z,100566.02
2022-10-11T15:10:41.530Z,100568.66
2022-10-11T15:13:09.983Z,100571.86
2022-10-11T15:15:41.554Z,100570.02
2022-10-11T15:18:13.577Z,100569.95
2022-10-11T15:20:44.833Z,100571.80
2022-10-11T15:23:12.876Z,100578.69
2022-10-11T15:25:41.552Z,100586.55
2022-10-11T15:28:20.888Z,100587.89
2022-10-11T15:30:49.067Z,100585.74
2022-10-11T15:33:20.160Z,100587.84
2022-10-11T15:35:48.372Z,100589.78
2022-10-11T15:38:22.501Z,100593.38
2022-10-11T15:40:52.350Z,100594.21
2022-10-11T15:43:24.797Z,100597.92
2022-10-11T15:45:55.026Z,100596.02
2022-10-11T15:48:26.437Z,100599.02
2022-10-11T15:50:55.301Z,100602.45
2022-10-11T15:53:28.717Z,100611.01
2022-10-11T15:55:59.497Z,100611.41
2022-10-11T15:58:36.890Z,100610.98
2022-10-11T16:01:09.371Z,100609.94
2022-10-11T16:03:37.937Z,100611.06
2022-10-11T16:06:06.229Z,100613.27
2022-10-11T16:08:35.186Z,100610.85
2022-10-11T16:11:04.915Z,100617.70
2022-10-11T16:13:33.033Z,100619.05
2022-10-11T16:16:02.762Z,100622.44
2022-10-11T16:18:35.391Z,100625.95
2022-10-11T16:21:13.483Z,100628.39
2022-10-11T16:23:42.087Z,100630.92
2022-10-11T16:26:13.833Z,100634.21
2022-10-11T16:28:42.556Z,100636.69
2022-10-11T16:31:15.623Z,100638.23
2022-10-11T16:33:47.356Z,100640.74
2022-10-11T16:36:32.547Z,100642.02
2022-10-11T16:39:03.805Z,100643.59
2022-10-11T16:41:32.205Z,100643.08
2022-10-11T16:44:00.320Z,100643.36
2022-10-11T16:46:28.521Z,100642.25
2022-10-11T16:48:56.679Z,100642.31
2022-10-11T16:51:25.002Z,100642.17
2022-10-11T16:53:53.346Z,100644.05
2022-10-11T16:56:22.860Z,100645.02
2022-10-11T16:58:53.286Z,100644.42
2022-10-11T17:01:21.624Z,100647.73
2022-10-11T17:03:50.371Z,100644.41
2022-10-11T17:06:19.539Z,100641.58
2022-10-11T17:08:47.518Z,100644.09
2022-10-11T17:11:20.261Z,100641.57
2022-10-11T17:13:50.030Z,100643.05
2022-10-11T17:16:18.351Z,100641.65
2022-10-11T17:18:46.416Z,100640.70
2022-10-11T17:21:18.102Z,100641.71
2022-10-11T17:23:48.514Z,100638.98
2022-10-11T17:26:27.123Z,100633.78
2022-10-11T17:28:57.469Z,100630.54
2022-10-11T17:31:26.176Z,100632.19
2022-10-11T17:33:55.143Z,100625.23
2022-10-11T17:36:30.819Z,100624.77
2022-10-11T17:39:06.373Z,100626.52
2022-10-11T17:41:34.843Z,100628.20
2022-10-11T17:44:03.275Z,100627.79
2022-10-11T17:46:34.432Z,100628.65
2022-10-11T17:49:05.364Z,100628.09
2022-10-11T17:51:35.868Z,100628.29
2022-10-11T17:54:04.303Z,100632.02
2022-10-11T17:56:37.741Z,100631.49
2022-10-11T17:59:06.273Z,100630.88
2022-10-11T18:01:34.720Z,100638.90
2022-10-11T18:04:06.122Z,100642.40
2022-10-11T18:06:39.420Z,100641.09
2022-10-11T18:09:07.541Z,100643.73
2022-10-11T18:11:35.776Z,100644.66
2022-10-11T18:14:05.351Z,100643.61
2022-10-11T18:16:35.214Z,100647.70
2022-10-11T18:19:09.016Z,100651.60
2022-10-11T18:21:37.943Z,100646.38
2022-10-11T18:24:16.793Z,100648.70
2022-10-11T18:26:47.299Z,100643.08
2022-10-11T18:29:15.648Z,100645.31
2022-10-11T18:31:44.290Z,100647.03
2022-10-11T18:34:13.904Z,100644.48
2022-10-11T18:36:42.500Z,100644.44
2022-10-11T18:39:13.385Z,100641.98
2022-10-11T18:41:44.695Z,100644.06
2022-10-11T18:44:15.674Z,100643.31
2022-10-11T18:46:45.075Z,100642.83
2022-10-11T18:49:13.729Z,100647.76
2022-10-11T18:51:42.866Z,100644.77
2022-10-11T18:54:15.359Z,100645.05
2022-10-11T18:56:46.552Z,100640.91
2022-10-11T18:59:14.875Z,100641.10
2022-10-11T19:01:44.912Z,100641.79
2022-10-11T19:04:16.109Z,100642.10
2022-10-11T19:06:49.891Z,100648.55
2022-10-11T19:09:24.509Z,100648.19
2022-10-11T19:11:54.414Z,100647.33
2022-10-11T19:14:29.022Z,100651.64
2022-10-11T19:16:57.825Z,100653.42
2022-10-11T19:19:28.512Z,100655.50
2022-10-11T19:21:57.023Z,100653.57
2022-10-11T19:24:27.251Z,100653.54
2022-10-11T19:26:59.857Z,100655.41
2022-10-11T19:29:31.613Z,100652.50
2022-10-11T19:32:03.028Z,100655.88
2022-10-11T19:34:31.844Z,100655.35
2022-10-11T19:37:01.262Z,100658.51
2022-10-11T19:39:29.833Z,100658.59
2022-10-11T19:41:58.053Z,100657.21
2022-10-11T19:44:26.089Z,100660.63
2022-10-11T19:46:54.163Z,100661.44
2022-10-11T19:49:25.247Z,100660.13
2022-10-11T19:51:55.454Z,100662.77
2022-10-11T19:54:24.365Z,100662.94
2022-10-11T19:56:52.669Z,100656.70
2022-10-11T19:59:20.692Z,100663.53
2022-10-11T20:01:52.788Z,100664.83
2022-10-11T20:04:50.528Z,100663.46
2022-10-11T20:07:10.523Z,100666.92
2022-10-11T20:09:38.572Z,100669.67
2022-10-11T20:12:06.898Z,100672.63
2022-10-11T20:14:34.899Z,100670.05
2022-10-11T20:17:02.904Z,100671.86
2022-10-11T20:19:31.839Z,100671.95
2022-10-11T20:22:00.911Z,100672.11
2022-10-11T20:24:33.211Z,100672.20
2022-10-11T20:27:03.974Z,100668.69
2022-10-11T20:29:32.016Z,100671.02
2022-10-11T20:32:00.290Z,100671.26
2022-10-11T20:34:28.423Z,100671.98
2022-10-11T20:36:56.686Z,100673.11
2022-10-11T20:39:24.861Z,100678.43
2022-10-11T20:41:52.933Z,100675.74
2022-10-11T20:44:21.301Z,100676.98
2022-10-11T20:46:49.406Z,100673.63
2022-10-11T20:49:20.010Z,100678.20
2022-10-11T20:51:48.815Z,100675.01
2022-10-11T20:54:19.012Z,100673.98
2022-10-11T20:56:47.150Z,100672.73
2022-10-11T20:59:15.184Z,100673.40
2022-10-11T21:01:43.335Z,100671.08
2022-10-11T21:04:18.829Z,100671.36
2022-10-11T21:06:49.994Z,100670.60
2022-10-11T21:09:18.069Z,100672.63
2022-10-11T21:11:46.348Z,100670.82
2022-10-11T21:14:14.983Z,100673.07
2022-10-11T21:16:43.229Z,100673.65
2022-10-11T21:19:14.568Z,100676.05
2022-10-11T21:21:43.460Z,100673.19
2022-10-11T21:24:11.506Z,100678.96
2022-10-11T21:26:39.509Z,100682.30
2022-10-11T21:29:08.599Z,100685.39
2022-10-11T21:31:36.578Z,100681.02
2022-10-11T21:34:06.893Z,100678.37
2022-10-11T21:36:35.299Z,100678.52
2022-10-11T21:39:03.885Z,100678.58
2022-10-11T21:41:32.232Z,100679.95
2022-10-11T21:44:00.368Z,100682.03
2022-10-11T21:47:01.380Z,100681.61
2022-10-11T21:49:20.561Z,100681.78
2022-10-11T21:51:48.617Z,100680.61
2022-10-11T21:54:17.107Z,100682.55
2022-10-11T21:56:45.142Z,100683.77
2022-10-11T21:59:13.170Z,100687.46
2022-10-11T22:01:41.864Z,100686.66
2022-10-11T22:04:11.053Z,100686.52
2022-10-11T22:06:39.740Z,100691.02
2022-10-11T22:09:08.477Z,100688.50
2022-10-11T22:11:37.229Z,100689.11
2022-10-11T22:14:05.342Z,100691.69
2022-10-11T22:16:34.882Z,100688.06
2022-10-11T22:19:03.050Z,100691.13
2022-10-11T22:21:31.085Z,100693.71
2022-10-11T22:23:59.156Z,100694.72
2022-10-11T22:26:31.999Z,100699.00
2022-10-11T22:29:00.772Z,100700.38
2022-10-11T22:31:30.321Z,100700.66
2022-10-11T22:34:00.325Z,100697.92
2022-10-11T22:36:33.786Z,100697.14
2022-10-11T22:39:07.707Z,100699.89
2022-10-11T22:41:36.965Z,100697.80
2022-10-11T22:44:06.052Z,100695.00
2022-10-11T22:46:34.062Z,100692.43
2022-10-11T22:49:02.085Z,100694.87
2022-10-11T22:51:30.048Z,100695.17
2022-10-11T22:53:58.273Z,100699.66
2022-10-11T22:56:26.257Z,100698.88
2022-10-11T22:58:54.309Z,100701.90
2022-10-11T23:01:22.266Z,100698.85
2022-10-11T23:03:50.903Z,100705.39
2022-10-11T23:06:18.967Z,100703.89
2022-10-11T23:08:47.059Z,100709.48
2022-10-11T23:11:15.283Z,100709.39
2022-10-11T23:13:43.279Z,100706.01
2022-10-11T23:16:12.702Z,100705.87
2022-10-11T23:18:41.086Z,100707.83
2022-10-11T23:21:10.431Z,100708.34
2022-10-11T23:23:39.960Z,100708.78
2022-10-11T23:26:13.540Z,100708.69
2022-10-11T23:28:42.793Z,100712.90
2022-10-11T23:31:12.722Z,100713.20
2022-10-11T23:33:40.737Z,100716.11
2022-10-11T23:36:17.042Z,100718.38
2022-10-11T23:38:45.419Z,100719.65
2022-10-11T23:41:13.359Z,100718.70
2022-10-11T23:43:41.391Z,100725.38
2022-10-11T23:46:09.359Z,100723.88
2022-10-11T23:48:37.351Z,100719.68
2022-10-11T23:51:05.636Z,100722.27
2022-10-11T23:53:34.120Z,100719.12
2022-10-11T23:56:03.004Z,100720.94
2022-10-11T23:58:31.380Z,100724.52
